KMOR/MOR METAR and TAF weather

Enter ICAO airport designator
Station Type Date Time Source
KMOR METAR 2019/08/22 05:35 UTC NOAA

KMOR 220535Z AUTO 00000KT 10SM FEW060 24/21 A3004 RMK A01


Station Type Date Time Source
KMOR Decoded METAR 2019/08/22 05:35 UTC NOAA

Station name not available
Aug 22, 2019 - 01:35 AM EDT / 2019.08.22 0535 UTC
Wind: Calm:0
Visibility: 10 mile(s):0
Sky conditions: mostly clear
Temperature: 75 F (24 C)
Dew Point: 69 F (21 C)
Relative Humidity: 83%
Pressure (altimeter): 30.04 in. Hg (1017 hPa)
ob: KMOR 220535Z AUTO 00000KT 10SM FEW060 24/21 A3004 RMK A01
cycle: 5

Station Type Date Time Source
KMOR TAF UTC NOAA

Error!

Example: see airport list